East Aurora, New York
Current Conditions -  °F | °C
As of 2:54 AM on Saturday 29 Nov 2014 (Local Time) from KBUF Reporting Station
Overcast Overcast  
Wind Chill: -9°   Ceiling: 3300
Heat Index: -3°   Visibility: 10mi
Dew Point: -8°   Wind: 12mph
Humidity: 69%   Direction: 190°S
Pressure: 30.17"   Gusts: NA
Location:  42.77°N, 78.61°W
Report Text: KBUF 290754Z 19010KT 10SM BKN033 OVC040 M03/M08 A3017 RMK AO2 SLP228 T10331083
Loading
Personal Weather Stations






























Interactive Weather Map New forecast layout! Learn more

10-Day Weather Forecast

Advertisements
Track Severe Weather on mobile